sensor_id;sensor_type;location;lat;lon;timestamp;P1;durP1;ratioP1;P2;durP2;ratioP2
20865;SDS011;10593;48.398;10.698;2023-06-04T00:00:47;2.17;;;1.90;;
20865;SDS011;10593;48.398;10.698;2023-06-04T00:03:13;3.43;;;1.87;;
20865;SDS011;10593;48.398;10.698;2023-06-04T00:05:39;3.80;;;2.20;;
20865;SDS011;10593;48.398;10.698;2023-06-04T00:08:04;1.90;;;1.60;;
20865;SDS011;10593;48.398;10.698;2023-06-04T00:10:30;1.77;;;1.67;;
20865;SDS011;10593;48.398;10.698;2023-06-04T00:12:57;1.83;;;1.73;;
20865;SDS011;10593;48.398;10.698;2023-06-04T00:15:23;3.00;;;2.20;;
20865;SDS011;10593;48.398;10.698;2023-06-04T00:17:49;2.20;;;1.90;;
20865;SDS011;10593;48.398;10.698;2023-06-04T00:20:15;2.80;;;1.90;;
20865;SDS011;10593;48.398;10.698;2023-06-04T00:22:41;2.63;;;2.00;;
20865;SDS011;10593;48.398;10.698;2023-06-04T00:25:07;2.10;;;2.00;;
20865;SDS011;10593;48.398;10.698;2023-06-04T00:27:34;2.23;;;2.10;;
20865;SDS011;10593;48.398;10.698;2023-06-04T00:30:01;2.93;;;1.93;;
20865;SDS011;10593;48.398;10.698;2023-06-04T00:32:27;2.00;;;1.80;;
20865;SDS011;10593;48.398;10.698;2023-06-04T00:34:53;2.33;;;2.00;;
20865;SDS011;10593;48.398;10.698;2023-06-04T00:37:22;2.13;;;1.93;;
20865;SDS011;10593;48.398;10.698;2023-06-04T00:39:50;1.97;;;1.87;;
20865;SDS011;10593;48.398;10.698;2023-06-04T00:42:16;2.47;;;1.70;;
20865;SDS011;10593;48.398;10.698;2023-06-04T00:44:42;1.93;;;1.80;;
20865;SDS011;10593;48.398;10.698;2023-06-04T00:47:11;2.23;;;1.97;;
20865;SDS011;10593;48.398;10.698;2023-06-04T00:49:37;1.53;;;1.43;;
20865;SDS011;10593;48.398;10.698;2023-06-04T00:52:04;2.07;;;1.97;;
20865;SDS011;10593;48.398;10.698;2023-06-04T00:54:30;2.00;;;1.90;;
20865;SDS011;10593;48.398;10.698;2023-06-04T00:56:58;1.83;;;1.70;;
20865;SDS011;10593;48.398;10.698;2023-06-04T00:59:24;3.67;;;1.80;;
20865;SDS011;10593;48.398;10.698;2023-06-04T01:02:03;2.20;;;2.00;;
20865;SDS011;10593;48.398;10.698;2023-06-04T01:04:54;2.20;;;2.03;;
20865;SDS011;10593;48.398;10.698;2023-06-04T01:07:54;2.00;;;1.90;;
20865;SDS011;10593;48.398;10.698;2023-06-04T01:10:22;2.20;;;2.00;;
20865;SDS011;10593;48.398;10.698;2023-06-04T01:12:48;2.90;;;2.03;;
20865;SDS011;10593;48.398;10.698;2023-06-04T01:15:13;2.43;;;2.00;;
20865;SDS011;10593;48.398;10.698;2023-06-04T01:17:40;2.23;;;2.03;;
20865;SDS011;10593;48.398;10.698;2023-06-04T01:26:02;2.00;;;1.80;;
20865;SDS011;10593;48.398;10.698;2023-06-04T01:28:30;2.50;;;1.80;;
20865;SDS011;10593;48.398;10.698;2023-06-04T01:30:58;2.13;;;1.90;;
20865;SDS011;10593;48.398;10.698;2023-06-04T01:33:27;2.20;;;1.93;;
20865;SDS011;10593;48.398;10.698;2023-06-04T01:35:53;2.20;;;2.00;;
20865;SDS011;10593;48.398;10.698;2023-06-04T01:38:19;3.07;;;2.10;;
20865;SDS011;10593;48.398;10.698;2023-06-04T01:40:45;3.33;;;2.13;;
20865;SDS011;10593;48.398;10.698;2023-06-04T01:43:11;2.87;;;1.93;;
20865;SDS011;10593;48.398;10.698;2023-06-04T01:45:38;1.73;;;1.63;;
20865;SDS011;10593;48.398;10.698;2023-06-04T01:48:04;1.90;;;1.80;;
20865;SDS011;10593;48.398;10.698;2023-06-04T01:50:31;2.13;;;2.00;;
20865;SDS011;10593;48.398;10.698;2023-06-04T01:52:57;2.27;;;2.07;;
20865;SDS011;10593;48.398;10.698;2023-06-04T01:55:22;2.93;;;2.10;;
20865;SDS011;10593;48.398;10.698;2023-06-04T01:57:50;1.77;;;1.67;;
20865;SDS011;10593;48.398;10.698;2023-06-04T02:00:16;3.13;;;1.90;;
20865;SDS011;10593;48.398;10.698;2023-06-04T02:02:45;2.17;;;1.80;;
20865;SDS011;10593;48.398;10.698;2023-06-04T02:05:15;2.77;;;2.17;;
20865;SDS011;10593;48.398;10.698;2023-06-04T02:07:41;3.80;;;2.10;;
20865;SDS011;10593;48.398;10.698;2023-06-04T02:10:11;3.00;;;2.30;;
20865;SDS011;10593;48.398;10.698;2023-06-04T02:12:54;2.03;;;1.90;;
20865;SDS011;10593;48.398;10.698;2023-06-04T02:15:24;2.00;;;1.83;;
20865;SDS011;10593;48.398;10.698;2023-06-04T02:17:53;2.33;;;1.83;;
20865;SDS011;10593;48.398;10.698;2023-06-04T02:20:25;2.27;;;1.97;;
20865;SDS011;10593;48.398;10.698;2023-06-04T02:22:53;2.20;;;2.00;;
20865;SDS011;10593;48.398;10.698;2023-06-04T02:25:22;2.90;;;1.80;;
20865;SDS011;10593;48.398;10.698;2023-06-04T02:27:48;2.30;;;2.10;;
20865;SDS011;10593;48.398;10.698;2023-06-04T02:30:14;2.30;;;2.10;;
20865;SDS011;10593;48.398;10.698;2023-06-04T02:32:42;2.00;;;1.90;;
20865;SDS011;10593;48.398;10.698;2023-06-04T02:35:09;2.27;;;2.10;;
20865;SDS011;10593;48.398;10.698;2023-06-04T02:37:35;1.97;;;1.87;;
20865;SDS011;10593;48.398;10.698;2023-06-04T02:40:01;4.47;;;2.40;;
20865;SDS011;10593;48.398;10.698;2023-06-04T02:42:27;2.57;;;2.37;;
20865;SDS011;10593;48.398;10.698;2023-06-04T02:44:55;2.23;;;2.03;;
20865;SDS011;10593;48.398;10.698;2023-06-04T02:47:21;3.20;;;2.10;;
20865;SDS011;10593;48.398;10.698;2023-06-04T02:49:47;3.23;;;2.10;;
20865;SDS011;10593;48.398;10.698;2023-06-04T02:52:13;2.50;;;1.97;;
20865;SDS011;10593;48.398;10.698;2023-06-04T02:54:38;2.20;;;2.00;;
20865;SDS011;10593;48.398;10.698;2023-06-04T02:57:07;2.80;;;2.20;;
20865;SDS011;10593;48.398;10.698;2023-06-04T02:59:33;3.40;;;2.20;;
20865;SDS011;10593;48.398;10.698;2023-06-04T03:01:59;2.20;;;2.00;;
20865;SDS011;10593;48.398;10.698;2023-06-04T03:04:25;2.27;;;2.07;;
20865;SDS011;10593;48.398;10.698;2023-06-04T03:06:51;2.93;;;1.87;;
20865;SDS011;10593;48.398;10.698;2023-06-04T03:09:23;1.97;;;1.87;;
20865;SDS011;10593;48.398;10.698;2023-06-04T03:11:48;2.17;;;1.97;;
20865;SDS011;10593;48.398;10.698;2023-06-04T03:14:14;2.10;;;2.00;;
20865;SDS011;10593;48.398;10.698;2023-06-04T03:16:41;2.37;;;2.00;;
20865;SDS011;10593;48.398;10.698;2023-06-04T03:19:07;2.23;;;2.03;;
20865;SDS011;10593;48.398;10.698;2023-06-04T03:21:33;2.33;;;2.13;;
20865;SDS011;10593;48.398;10.698;2023-06-04T03:23:59;3.50;;;1.80;;
20865;SDS011;10593;48.398;10.698;2023-06-04T03:26:24;2.60;;;2.13;;
20865;SDS011;10593;48.398;10.698;2023-06-04T03:28:51;2.53;;;2.30;;
20865;SDS011;10593;48.398;10.698;2023-06-04T03:31:17;7.73;;;2.17;;
20865;SDS011;10593;48.398;10.698;2023-06-04T03:33:43;3.43;;;1.90;;
20865;SDS011;10593;48.398;10.698;2023-06-04T03:36:09;1.80;;;1.70;;
20865;SDS011;10593;48.398;10.698;2023-06-04T03:38:35;2.00;;;1.90;;
20865;SDS011;10593;48.398;10.698;2023-06-04T03:41:00;3.90;;;2.13;;
20865;SDS011;10593;48.398;10.698;2023-06-04T03:43:26;1.90;;;1.80;;
20865;SDS011;10593;48.398;10.698;2023-06-04T03:45:51;3.03;;;2.30;;
20865;SDS011;10593;48.398;10.698;2023-06-04T03:48:17;2.10;;;2.00;;
20865;SDS011;10593;48.398;10.698;2023-06-04T03:50:43;2.10;;;1.90;;
20865;SDS011;10593;48.398;10.698;2023-06-04T03:53:11;2.27;;;1.97;;
20865;SDS011;10593;48.398;10.698;2023-06-04T03:55:36;2.20;;;1.90;;
20865;SDS011;10593;48.398;10.698;2023-06-04T03:58:02;2.20;;;2.00;;
20865;SDS011;10593;48.398;10.698;2023-06-04T04:00:28;5.23;;;2.20;;
20865;SDS011;10593;48.398;10.698;2023-06-04T04:02:53;3.20;;;2.03;;
20865;SDS011;10593;48.398;10.698;2023-06-04T04:05:21;2.23;;;2.00;;
20865;SDS011;10593;48.398;10.698;2023-06-04T04:07:46;2.13;;;2.00;;
20865;SDS011;10593;48.398;10.698;2023-06-04T04:10:13;2.30;;;2.10;;
20865;SDS011;10593;48.398;10.698;2023-06-04T04:12:38;2.30;;;2.10;;
20865;SDS011;10593;48.398;10.698;2023-06-04T04:15:04;2.60;;;2.23;;
20865;SDS011;10593;48.398;10.698;2023-06-04T04:17:30;2.90;;;2.50;;
20865;SDS011;10593;48.398;10.698;2023-06-04T04:19:56;2.13;;;2.03;;
20865;SDS011;10593;48.398;10.698;2023-06-04T04:22:22;2.50;;;2.30;;
20865;SDS011;10593;48.398;10.698;2023-06-04T04:24:47;2.40;;;2.20;;
20865;SDS011;10593;48.398;10.698;2023-06-04T04:27:13;2.27;;;2.10;;
20865;SDS011;10593;48.398;10.698;2023-06-04T04:29:40;2.10;;;2.00;;
20865;SDS011;10593;48.398;10.698;2023-06-04T04:32:07;3.57;;;2.27;;
20865;SDS011;10593;48.398;10.698;2023-06-04T04:34:36;2.37;;;2.10;;
20865;SDS011;10593;48.398;10.698;2023-06-04T04:37:08;2.33;;;2.10;;
20865;SDS011;10593;48.398;10.698;2023-06-04T04:39:34;2.40;;;2.20;;
20865;SDS011;10593;48.398;10.698;2023-06-04T04:42:01;2.00;;;1.87;;
20865;SDS011;10593;48.398;10.698;2023-06-04T04:44:28;2.00;;;1.70;;
20865;SDS011;10593;48.398;10.698;2023-06-04T04:46:53;2.37;;;2.17;;
20865;SDS011;10593;48.398;10.698;2023-06-04T04:49:19;2.73;;;2.40;;
20865;SDS011;10593;48.398;10.698;2023-06-04T04:51:46;3.03;;;2.07;;
20865;SDS011;10593;48.398;10.698;2023-06-04T04:54:12;3.67;;;2.27;;
20865;SDS011;10593;48.398;10.698;2023-06-04T04:56:37;3.00;;;2.20;;
20865;SDS011;10593;48.398;10.698;2023-06-04T04:59:03;2.27;;;2.03;;
20865;SDS011;10593;48.398;10.698;2023-06-04T05:01:29;2.20;;;1.97;;
20865;SDS011;10593;48.398;10.698;2023-06-04T05:03:55;2.40;;;2.20;;
20865;SDS011;10593;48.398;10.698;2023-06-04T05:06:20;2.20;;;2.00;;
20865;SDS011;10593;48.398;10.698;2023-06-04T05:08:46;1.93;;;1.70;;
20865;SDS011;10593;48.398;10.698;2023-06-04T05:11:12;2.77;;;1.87;;
20865;SDS011;10593;48.398;10.698;2023-06-04T05:13:38;3.77;;;1.70;;
20865;SDS011;10593;48.398;10.698;2023-06-04T05:16:06;1.53;;;1.43;;
20865;SDS011;10593;48.398;10.698;2023-06-04T05:18:32;1.67;;;1.53;;
20865;SDS011;10593;48.398;10.698;2023-06-04T05:20:59;1.60;;;1.50;;
20865;SDS011;10593;48.398;10.698;2023-06-04T05:23:27;2.67;;;1.40;;
20865;SDS011;10593;48.398;10.698;2023-06-04T05:25:55;2.90;;;1.60;;
20865;SDS011;10593;48.398;10.698;2023-06-04T05:28:21;1.50;;;1.40;;
20865;SDS011;10593;48.398;10.698;2023-06-04T05:30:49;1.70;;;1.60;;
20865;SDS011;10593;48.398;10.698;2023-06-04T05:33:17;1.50;;;1.40;;
20865;SDS011;10593;48.398;10.698;2023-06-04T05:35:52;1.73;;;1.63;;
20865;SDS011;10593;48.398;10.698;2023-06-04T05:38:22;1.50;;;1.40;;
20865;SDS011;10593;48.398;10.698;2023-06-04T05:40:51;1.30;;;1.20;;
20865;SDS011;10593;48.398;10.698;2023-06-04T05:43:18;1.23;;;1.13;;
20865;SDS011;10593;48.398;10.698;2023-06-04T05:45:45;1.43;;;1.30;;
20865;SDS011;10593;48.398;10.698;2023-06-04T05:48:11;2.83;;;1.60;;
20865;SDS011;10593;48.398;10.698;2023-06-04T05:50:37;4.23;;;1.50;;
20865;SDS011;10593;48.398;10.698;2023-06-04T05:53:02;1.43;;;1.33;;
20865;SDS011;10593;48.398;10.698;2023-06-04T05:55:28;2.00;;;1.80;;
20865;SDS011;10593;48.398;10.698;2023-06-04T05:57:54;1.57;;;1.47;;
20865;SDS011;10593;48.398;10.698;2023-06-04T06:00:20;1.27;;;1.20;;
20865;SDS011;10593;48.398;10.698;2023-06-04T06:02:47;1.60;;;1.50;;
20865;SDS011;10593;48.398;10.698;2023-06-04T06:05:15;2.63;;;1.60;;
20865;SDS011;10593;48.398;10.698;2023-06-04T06:07:44;1.70;;;1.60;;
20865;SDS011;10593;48.398;10.698;2023-06-04T06:10:10;1.77;;;1.60;;
20865;SDS011;10593;48.398;10.698;2023-06-04T06:12:36;1.50;;;1.40;;
20865;SDS011;10593;48.398;10.698;2023-06-04T06:15:03;1.60;;;1.50;;
20865;SDS011;10593;48.398;10.698;2023-06-04T06:17:29;2.00;;;1.80;;
20865;SDS011;10593;48.398;10.698;2023-06-04T06:19:55;3.23;;;1.83;;
20865;SDS011;10593;48.398;10.698;2023-06-04T06:22:21;3.70;;;1.93;;
20865;SDS011;10593;48.398;10.698;2023-06-04T06:24:47;1.63;;;1.53;;
20865;SDS011;10593;48.398;10.698;2023-06-04T06:27:16;1.73;;;1.63;;
20865;SDS011;10593;48.398;10.698;2023-06-04T06:29:42;1.70;;;1.60;;
20865;SDS011;10593;48.398;10.698;2023-06-04T06:32:09;1.70;;;1.60;;
20865;SDS011;10593;48.398;10.698;2023-06-04T06:34:35;1.70;;;1.50;;
20865;SDS011;10593;48.398;10.698;2023-06-04T06:37:02;1.97;;;1.80;;
20865;SDS011;10593;48.398;10.698;2023-06-04T06:39:28;1.73;;;1.63;;
20865;SDS011;10593;48.398;10.698;2023-06-04T06:41:53;3.37;;;1.70;;
20865;SDS011;10593;48.398;10.698;2023-06-04T06:44:19;2.83;;;1.90;;
20865;SDS011;10593;48.398;10.698;2023-06-04T06:46:45;2.00;;;1.90;;
20865;SDS011;10593;48.398;10.698;2023-06-04T06:49:11;1.50;;;1.40;;
20865;SDS011;10593;48.398;10.698;2023-06-04T06:51:37;2.47;;;1.80;;
20865;SDS011;10593;48.398;10.698;2023-06-04T06:54:03;1.80;;;1.37;;
20865;SDS011;10593;48.398;10.698;2023-06-04T06:56:28;1.70;;;1.60;;
20865;SDS011;10593;48.398;10.698;2023-06-04T06:58:55;2.00;;;1.90;;
20865;SDS011;10593;48.398;10.698;2023-06-04T07:01:21;1.43;;;1.33;;
20865;SDS011;10593;48.398;10.698;2023-06-04T07:03:46;2.07;;;1.87;;
20865;SDS011;10593;48.398;10.698;2023-06-04T07:06:12;1.90;;;1.77;;
20865;SDS011;10593;48.398;10.698;2023-06-04T07:08:38;2.10;;;1.80;;
20865;SDS011;10593;48.398;10.698;2023-06-04T07:11:04;2.63;;;1.80;;
20865;SDS011;10593;48.398;10.698;2023-06-04T07:13:30;1.57;;;1.47;;
20865;SDS011;10593;48.398;10.698;2023-06-04T07:15:58;1.80;;;1.70;;
20865;SDS011;10593;48.398;10.698;2023-06-04T07:18:25;3.50;;;1.70;;
20865;SDS011;10593;48.398;10.698;2023-06-04T07:20:50;2.73;;;1.90;;
20865;SDS011;10593;48.398;10.698;2023-06-04T07:23:17;2.20;;;2.00;;
20865;SDS011;10593;48.398;10.698;2023-06-04T07:25:43;1.90;;;1.70;;
20865;SDS011;10593;48.398;10.698;2023-06-04T07:28:09;1.97;;;1.33;;
20865;SDS011;10593;48.398;10.698;2023-06-04T07:30:35;2.50;;;1.87;;
20865;SDS011;10593;48.398;10.698;2023-06-04T07:33:01;1.87;;;1.77;;
20865;SDS011;10593;48.398;10.698;2023-06-04T07:35:27;2.00;;;1.90;;
20865;SDS011;10593;48.398;10.698;2023-06-04T07:37:53;2.70;;;2.03;;
20865;SDS011;10593;48.398;10.698;2023-06-04T07:40:18;2.57;;;2.37;;
20865;SDS011;10593;48.398;10.698;2023-06-04T07:42:45;1.50;;;1.40;;
20865;SDS011;10593;48.398;10.698;2023-06-04T07:45:15;2.10;;;1.90;;
20865;SDS011;10593;48.398;10.698;2023-06-04T07:47:41;2.90;;;1.90;;
20865;SDS011;10593;48.398;10.698;2023-06-04T07:50:08;1.97;;;1.60;;
20865;SDS011;10593;48.398;10.698;2023-06-04T07:52:34;1.90;;;1.80;;
20865;SDS011;10593;48.398;10.698;2023-06-04T07:55:00;1.97;;;1.80;;
20865;SDS011;10593;48.398;10.698;2023-06-04T07:57:26;1.73;;;1.63;;
20865;SDS011;10593;48.398;10.698;2023-06-04T07:59:52;1.90;;;1.70;;
20865;SDS011;10593;48.398;10.698;2023-06-04T08:02:18;2.10;;;1.83;;
20865;SDS011;10593;48.398;10.698;2023-06-04T08:04:44;1.60;;;1.50;;
20865;SDS011;10593;48.398;10.698;2023-06-04T08:07:11;2.93;;;2.00;;
20865;SDS011;10593;48.398;10.698;2023-06-04T08:09:37;2.10;;;2.00;;
20865;SDS011;10593;48.398;10.698;2023-06-04T08:12:03;1.80;;;1.70;;
20865;SDS011;10593;48.398;10.698;2023-06-04T08:14:29;2.87;;;1.80;;
20865;SDS011;10593;48.398;10.698;2023-06-04T08:16:55;2.13;;;2.00;;
20865;SDS011;10593;48.398;10.698;2023-06-04T08:19:21;2.27;;;2.07;;
20865;SDS011;10593;48.398;10.698;2023-06-04T08:21:48;2.10;;;1.90;;
20865;SDS011;10593;48.398;10.698;2023-06-04T08:24:14;2.27;;;2.07;;
20865;SDS011;10593;48.398;10.698;2023-06-04T08:26:40;2.27;;;2.03;;
20865;SDS011;10593;48.398;10.698;2023-06-04T08:29:06;3.30;;;1.97;;
20865;SDS011;10593;48.398;10.698;2023-06-04T08:31:33;3.30;;;1.53;;
20865;SDS011;10593;48.398;10.698;2023-06-04T08:33:59;2.23;;;1.77;;
20865;SDS011;10593;48.398;10.698;2023-06-04T08:36:24;1.90;;;1.80;;
20865;SDS011;10593;48.398;10.698;2023-06-04T08:38:52;1.90;;;1.80;;
20865;SDS011;10593;48.398;10.698;2023-06-04T08:43:55;1.60;;;1.50;;
20865;SDS011;10593;48.398;10.698;2023-06-04T08:46:26;1.87;;;1.77;;
20865;SDS011;10593;48.398;10.698;2023-06-04T08:48:56;1.87;;;1.77;;
20865;SDS011;10593;48.398;10.698;2023-06-04T08:51:30;1.97;;;1.87;;
20865;SDS011;10593;48.398;10.698;2023-06-04T08:54:02;3.00;;;1.87;;
20865;SDS011;10593;48.398;10.698;2023-06-04T08:56:30;2.07;;;1.60;;
20865;SDS011;10593;48.398;10.698;2023-06-04T08:58:59;2.50;;;2.07;;
20865;SDS011;10593;48.398;10.698;2023-06-04T09:01:28;2.00;;;1.90;;
20865;SDS011;10593;48.398;10.698;2023-06-04T09:03:56;1.83;;;1.67;;
20865;SDS011;10593;48.398;10.698;2023-06-04T09:06:27;1.80;;;1.70;;
20865;SDS011;10593;48.398;10.698;2023-06-04T09:08:56;1.90;;;1.70;;
20865;SDS011;10593;48.398;10.698;2023-06-04T09:11:41;2.03;;;1.80;;
20865;SDS011;10593;48.398;10.698;2023-06-04T09:14:22;2.60;;;2.00;;
20865;SDS011;10593;48.398;10.698;2023-06-04T09:16:49;3.27;;;1.83;;
20865;SDS011;10593;48.398;10.698;2023-06-04T09:19:17;1.80;;;1.70;;
20865;SDS011;10593;48.398;10.698;2023-06-04T09:21:52;1.80;;;1.70;;
20865;SDS011;10593;48.398;10.698;2023-06-04T09:24:20;1.63;;;1.50;;
20865;SDS011;10593;48.398;10.698;2023-06-04T09:26:49;2.30;;;2.10;;
20865;SDS011;10593;48.398;10.698;2023-06-04T09:29:15;2.90;;;2.00;;
20865;SDS011;10593;48.398;10.698;2023-06-04T09:31:57;2.00;;;1.90;;
20865;SDS011;10593;48.398;10.698;2023-06-04T09:34:27;2.00;;;1.80;;
20865;SDS011;10593;48.398;10.698;2023-06-04T09:36:54;1.90;;;1.80;;
20865;SDS011;10593;48.398;10.698;2023-06-04T09:39:20;4.27;;;1.90;;
20865;SDS011;10593;48.398;10.698;2023-06-04T09:41:56;2.13;;;1.80;;
20865;SDS011;10593;48.398;10.698;2023-06-04T09:44:27;4.60;;;1.97;;
20865;SDS011;10593;48.398;10.698;2023-06-04T09:46:57;2.57;;;2.23;;
20865;SDS011;10593;48.398;10.698;2023-06-04T09:49:23;5.23;;;2.00;;
20865;SDS011;10593;48.398;10.698;2023-06-04T09:51:49;3.50;;;2.00;;
20865;SDS011;10593;48.398;10.698;2023-06-04T09:54:16;2.13;;;1.90;;
20865;SDS011;10593;48.398;10.698;2023-06-04T09:56:41;2.60;;;1.93;;
20865;SDS011;10593;48.398;10.698;2023-06-04T09:59:08;2.00;;;1.90;;
20865;SDS011;10593;48.398;10.698;2023-06-04T10:01:35;2.30;;;2.10;;
20865;SDS011;10593;48.398;10.698;2023-06-04T10:04:08;2.50;;;1.70;;
20865;SDS011;10593;48.398;10.698;2023-06-04T10:06:36;3.00;;;1.80;;
20865;SDS011;10593;48.398;10.698;2023-06-04T10:09:07;3.33;;;2.17;;
20865;SDS011;10593;48.398;10.698;2023-06-04T10:11:35;2.47;;;2.20;;
20865;SDS011;10593;48.398;10.698;2023-06-04T10:16:46;1.93;;;1.83;;
20865;SDS011;10593;48.398;10.698;2023-06-04T10:19:15;2.47;;;1.90;;
20865;SDS011;10593;48.398;10.698;2023-06-04T10:21:43;2.00;;;1.90;;
20865;SDS011;10593;48.398;10.698;2023-06-04T10:24:09;2.70;;;2.10;;
20865;SDS011;10593;48.398;10.698;2023-06-04T10:26:35;2.30;;;2.10;;
20865;SDS011;10593;48.398;10.698;2023-06-04T10:29:04;2.10;;;1.90;;
20865;SDS011;10593;48.398;10.698;2023-06-04T10:31:31;3.50;;;2.20;;
20865;SDS011;10593;48.398;10.698;2023-06-04T10:33:57;2.53;;;2.20;;
20865;SDS011;10593;48.398;10.698;2023-06-04T10:36:23;4.43;;;2.17;;
20865;SDS011;10593;48.398;10.698;2023-06-04T10:38:51;2.00;;;1.90;;
20865;SDS011;10593;48.398;10.698;2023-06-04T10:41:19;2.70;;;2.17;;
20865;SDS011;10593;48.398;10.698;2023-06-04T10:43:49;3.53;;;2.30;;
20865;SDS011;10593;48.398;10.698;2023-06-04T10:46:17;2.33;;;2.10;;
20865;SDS011;10593;48.398;10.698;2023-06-04T10:48:48;2.63;;;2.13;;
20865;SDS011;10593;48.398;10.698;2023-06-04T10:51:33;2.70;;;2.50;;
20865;SDS011;10593;48.398;10.698;2023-06-04T10:54:02;2.50;;;2.30;;
20865;SDS011;10593;48.398;10.698;2023-06-04T10:56:32;2.43;;;2.23;;
20865;SDS011;10593;48.398;10.698;2023-06-04T10:59:12;4.27;;;2.30;;
20865;SDS011;10593;48.398;10.698;2023-06-04T11:01:40;2.43;;;2.27;;
20865;SDS011;10593;48.398;10.698;2023-06-04T11:04:05;3.70;;;2.80;;
20865;SDS011;10593;48.398;10.698;2023-06-04T11:06:31;3.40;;;2.77;;
20865;SDS011;10593;48.398;10.698;2023-06-04T11:09:03;2.70;;;2.50;;
20865;SDS011;10593;48.398;10.698;2023-06-04T11:11:33;2.87;;;2.57;;
20865;SDS011;10593;48.398;10.698;2023-06-04T11:14:09;3.50;;;2.83;;
20865;SDS011;10593;48.398;10.698;2023-06-04T11:16:37;3.00;;;2.70;;
20865;SDS011;10593;48.398;10.698;2023-06-04T11:19:03;2.57;;;2.37;;
20865;SDS011;10593;48.398;10.698;2023-06-04T11:21:30;3.20;;;2.90;;
20865;SDS011;10593;48.398;10.698;2023-06-04T11:23:58;2.67;;;2.17;;
20865;SDS011;10593;48.398;10.698;2023-06-04T11:26:31;4.43;;;2.33;;
20865;SDS011;10593;48.398;10.698;2023-06-04T11:28:58;3.13;;;2.30;;
20865;SDS011;10593;48.398;10.698;2023-06-04T11:31:25;2.80;;;2.40;;
20865;SDS011;10593;48.398;10.698;2023-06-04T11:33:51;3.83;;;2.70;;
20865;SDS011;10593;48.398;10.698;2023-06-04T11:36:26;2.53;;;2.33;;
20865;SDS011;10593;48.398;10.698;2023-06-04T11:39:00;2.60;;;2.40;;
20865;SDS011;10593;48.398;10.698;2023-06-04T11:41:31;2.63;;;2.43;;
20865;SDS011;10593;48.398;10.698;2023-06-04T11:44:03;2.67;;;2.47;;
20865;SDS011;10593;48.398;10.698;2023-06-04T11:46:31;3.07;;;2.70;;
20865;SDS011;10593;48.398;10.698;2023-06-04T11:48:58;2.87;;;2.20;;
20865;SDS011;10593;48.398;10.698;2023-06-04T11:51:24;3.07;;;2.60;;
20865;SDS011;10593;48.398;10.698;2023-06-04T11:53:51;2.80;;;2.60;;
20865;SDS011;10593;48.398;10.698;2023-06-04T11:56:17;2.57;;;2.40;;
20865;SDS011;10593;48.398;10.698;2023-06-04T11:58:43;3.10;;;2.30;;
20865;SDS011;10593;48.398;10.698;2023-06-04T12:01:11;2.87;;;2.67;;
20865;SDS011;10593;48.398;10.698;2023-06-04T12:03:41;4.43;;;2.73;;
20865;SDS011;10593;48.398;10.698;2023-06-04T12:06:17;3.03;;;2.80;;
20865;SDS011;10593;48.398;10.698;2023-06-04T12:08:54;2.87;;;2.67;;
20865;SDS011;10593;48.398;10.698;2023-06-04T12:11:33;3.00;;;2.80;;
20865;SDS011;10593;48.398;10.698;2023-06-04T12:14:06;2.97;;;2.63;;
20865;SDS011;10593;48.398;10.698;2023-06-04T12:16:35;3.77;;;2.67;;
20865;SDS011;10593;48.398;10.698;2023-06-04T12:19:18;3.23;;;2.80;;
20865;SDS011;10593;48.398;10.698;2023-06-04T12:21:44;3.43;;;2.90;;
20865;SDS011;10593;48.398;10.698;2023-06-04T12:24:10;3.10;;;2.80;;
20865;SDS011;10593;48.398;10.698;2023-06-04T12:26:39;14.23;;;3.83;;
20865;SDS011;10593;48.398;10.698;2023-06-04T12:29:15;3.23;;;2.90;;
20865;SDS011;10593;48.398;10.698;2023-06-04T12:31:45;3.43;;;3.00;;
20865;SDS011;10593;48.398;10.698;2023-06-04T12:34:13;3.00;;;2.80;;
20865;SDS011;10593;48.398;10.698;2023-06-04T12:36:39;2.90;;;2.70;;
20865;SDS011;10593;48.398;10.698;2023-06-04T12:39:05;2.77;;;2.27;;
20865;SDS011;10593;48.398;10.698;2023-06-04T12:41:32;5.23;;;3.17;;
20865;SDS011;10593;48.398;10.698;2023-06-04T12:43:59;3.83;;;2.90;;
20865;SDS011;10593;48.398;10.698;2023-06-04T12:46:26;3.67;;;2.97;;
20865;SDS011;10593;48.398;10.698;2023-06-04T12:48:53;3.07;;;2.87;;
20865;SDS011;10593;48.398;10.698;2023-06-04T12:51:20;3.73;;;2.70;;
20865;SDS011;10593;48.398;10.698;2023-06-04T12:53:47;3.33;;;2.70;;
20865;SDS011;10593;48.398;10.698;2023-06-04T12:56:13;3.40;;;2.70;;
20865;SDS011;10593;48.398;10.698;2023-06-04T12:58:39;3.27;;;2.97;;
20865;SDS011;10593;48.398;10.698;2023-06-04T13:01:05;13.63;;;3.40;;
20865;SDS011;10593;48.398;10.698;2023-06-04T13:03:31;10.07;;;3.13;;
20865;SDS011;10593;48.398;10.698;2023-06-04T13:05:57;31.40;;;3.97;;
20865;SDS011;10593;48.398;10.698;2023-06-04T13:08:23;2.80;;;2.60;;
20865;SDS011;10593;48.398;10.698;2023-06-04T13:10:50;3.23;;;2.90;;
20865;SDS011;10593;48.398;10.698;2023-06-04T13:13:17;3.77;;;3.37;;
20865;SDS011;10593;48.398;10.698;2023-06-04T13:15:45;9.00;;;3.00;;
20865;SDS011;10593;48.398;10.698;2023-06-04T13:18:11;3.73;;;3.03;;
20865;SDS011;10593;48.398;10.698;2023-06-04T13:20:37;10.33;;;3.60;;
20865;SDS011;10593;48.398;10.698;2023-06-04T13:23:05;9.07;;;3.33;;
20865;SDS011;10593;48.398;10.698;2023-06-04T13:25:32;11.47;;;3.17;;
20865;SDS011;10593;48.398;10.698;2023-06-04T13:28:01;3.83;;;3.10;;
20865;SDS011;10593;48.398;10.698;2023-06-04T13:30:28;4.10;;;3.00;;
20865;SDS011;10593;48.398;10.698;2023-06-04T13:32:54;3.53;;;2.97;;
20865;SDS011;10593;48.398;10.698;2023-06-04T13:35:20;3.10;;;2.83;;
20865;SDS011;10593;48.398;10.698;2023-06-04T13:37:45;3.20;;;3.00;;
20865;SDS011;10593;48.398;10.698;2023-06-04T13:40:12;2.77;;;2.57;;
20865;SDS011;10593;48.398;10.698;2023-06-04T13:42:38;2.67;;;2.47;;
20865;SDS011;10593;48.398;10.698;2023-06-04T13:45:05;3.67;;;2.80;;
20865;SDS011;10593;48.398;10.698;2023-06-04T13:47:31;3.10;;;2.90;;
20865;SDS011;10593;48.398;10.698;2023-06-04T13:49:57;3.20;;;2.90;;
20865;SDS011;10593;48.398;10.698;2023-06-04T13:52:23;3.50;;;3.20;;
20865;SDS011;10593;48.398;10.698;2023-06-04T13:54:49;3.43;;;3.20;;
20865;SDS011;10593;48.398;10.698;2023-06-04T13:57:16;3.87;;;3.10;;
20865;SDS011;10593;48.398;10.698;2023-06-04T13:59:42;2.47;;;2.37;;
20865;SDS011;10593;48.398;10.698;2023-06-04T14:02:07;2.97;;;2.70;;
20865;SDS011;10593;48.398;10.698;2023-06-04T14:04:33;2.73;;;2.53;;
20865;SDS011;10593;48.398;10.698;2023-06-04T14:06:59;2.80;;;2.60;;
20865;SDS011;10593;48.398;10.698;2023-06-04T14:09:24;4.43;;;2.93;;
20865;SDS011;10593;48.398;10.698;2023-06-04T14:11:50;3.20;;;2.60;;
20865;SDS011;10593;48.398;10.698;2023-06-04T14:14:19;4.17;;;2.43;;
20865;SDS011;10593;48.398;10.698;2023-06-04T14:16:47;2.67;;;2.47;;
20865;SDS011;10593;48.398;10.698;2023-06-04T14:19:13;3.70;;;2.70;;
20865;SDS011;10593;48.398;10.698;2023-06-04T14:21:40;2.87;;;2.67;;
20865;SDS011;10593;48.398;10.698;2023-06-04T14:24:07;3.03;;;2.60;;
20865;SDS011;10593;48.398;10.698;2023-06-04T14:26:34;2.63;;;2.43;;
20865;SDS011;10593;48.398;10.698;2023-06-04T14:29:00;2.70;;;2.50;;
20865;SDS011;10593;48.398;10.698;2023-06-04T14:31:26;2.80;;;2.60;;
20865;SDS011;10593;48.398;10.698;2023-06-04T14:33:52;2.57;;;2.37;;
20865;SDS011;10593;48.398;10.698;2023-06-04T14:36:18;2.53;;;2.33;;
20865;SDS011;10593;48.398;10.698;2023-06-04T14:38:43;2.93;;;2.63;;
20865;SDS011;10593;48.398;10.698;2023-06-04T14:41:09;3.73;;;2.83;;
20865;SDS011;10593;48.398;10.698;2023-06-04T14:43:35;2.57;;;2.33;;
20865;SDS011;10593;48.398;10.698;2023-06-04T14:46:02;2.90;;;2.57;;